Time;durP1;ratioP1;P1;durP2;ratioP2;P2;SDS_P1;SDS_P2;PMS_P1;PMS_P2;Temp;Humidity;BMP_temperature;BMP_pressure;BME280_temperature;BME280_humidity;BME280_pressure;Samples;Min_cycle;Max_cycle;Signal;HPM_P1;HPM_P2
2021/01/19 00:00:01;;;;;;;2.30;1.17;;;0.30;99.90;;;;;;5012277;28;20562;-75
2021/01/19 00:02:27;;;;;;;1.77;1.38;;;0.30;99.90;;;;;;5022713;28;20166;-75
2021/01/19 00:04:52;;;;;;;2.30;1.30;;;0.30;99.90;;;;;;5027107;28;20168;-75
2021/01/19 00:07:18;;;;;;;2.47;1.40;;;0.30;99.90;;;;;;5022870;28;20079;-75
2021/01/19 00:09:43;;;;;;;4.38;2.15;;;0.20;99.90;;;;;;5010466;28;20086;-75
2021/01/19 00:12:09;;;;;;;2.65;1.55;;;0.10;99.90;;;;;;5016439;28;20080;-75
2021/01/19 00:14:35;;;;;;;2.08;0.98;;;0.00;99.90;;;;;;5017463;28;20082;-75
2021/01/19 00:17:00;;;;;;;1.90;1.05;;;0.00;99.90;;;;;;5021768;28;20090;-75
2021/01/19 00:19:26;;;;;;;1.65;1.02;;;-0.10;99.90;;;;;;5022893;28;20090;-75
2021/01/19 00:21:51;;;;;;;2.58;1.15;;;-0.10;99.90;;;;;;5027991;28;20097;-75
2021/01/19 00:24:17;;;;;;;1.52;1.10;;;-0.10;99.90;;;;;;5016844;28;20071;-75
2021/01/19 00:26:42;;;;;;;2.10;1.35;;;0.00;99.90;;;;;;5015526;28;20449;-76
2021/01/19 00:29:08;;;;;;;1.90;1.30;;;-0.10;99.90;;;;;;5011534;28;20102;-76
2021/01/19 00:31:34;;;;;;;3.20;1.38;;;-0.10;99.90;;;;;;5025978;28;20148;-75
2021/01/19 00:33:59;;;;;;;1.95;1.20;;;-0.20;99.90;;;;;;5014966;28;20157;-75
2021/01/19 00:36:25;;;;;;;2.85;1.67;;;-0.20;99.90;;;;;;5013148;28;20130;-75
2021/01/19 00:38:51;;;;;;;1.45;1.17;;;-0.30;99.90;;;;;;5020584;28;20110;-75
2021/01/19 00:41:16;;;;;;;2.97;1.58;;;-0.30;99.90;;;;;;5029454;28;20070;-75
2021/01/19 00:43:42;;;;;;;2.42;1.40;;;-0.40;99.90;;;;;;5027576;28;20102;-75
2021/01/19 00:46:07;;;;;;;2.42;1.20;;;-0.40;99.90;;;;;;5025566;28;20093;-75
2021/01/19 00:48:33;;;;;;;2.08;1.05;;;-0.40;99.90;;;;;;5022749;28;20082;-75
2021/01/19 00:50:58;;;;;;;1.77;1.30;;;-0.40;99.90;;;;;;5018800;28;20077;-75
2021/01/19 00:53:24;;;;;;;1.75;1.10;;;-0.40;99.90;;;;;;5026131;28;20492;-75
2021/01/19 00:55:49;;;;;;;1.83;1.13;;;-0.40;99.90;;;;;;5015519;28;20522;-75
2021/01/19 00:58:15;;;;;;;2.40;1.15;;;-0.20;99.90;;;;;;5009470;28;20541;-76
2021/01/19 01:00:41;;;;;;;3.15;1.20;;;-0.30;99.90;;;;;;5014720;28;20093;-75
2021/01/19 01:03:06;;;;;;;5.07;1.40;;;-0.40;99.90;;;;;;5023157;28;20492;-75
2021/01/19 01:05:32;;;;;;;2.15;1.30;;;-0.40;99.90;;;;;;5010488;28;20683;-75
2021/01/19 01:07:59;;;;;;;3.63;1.25;;;-0.30;99.90;;;;;;5009810;28;20078;-75
2021/01/19 01:10:25;;;;;;;2.08;1.40;;;-0.30;99.90;;;;;;5021376;28;20110;-76
2021/01/19 01:12:51;;;;;;;2.22;1.27;;;-0.30;99.90;;;;;;5016173;28;20090;-75
2021/01/19 01:15:25;;;;;;;4.07;1.30;;;-0.30;99.90;;;;;;5024319;28;20079;-75
2021/01/19 01:17:51;;;;;;;;;;;-0.20;99.90;;;;;;5025362;28;20093;-75
2021/01/19 01:20:17;;;;;;;2.55;1.20;;;-0.30;99.90;;;;;;5018952;28;20000;-76
2021/01/19 01:22:44;;;;;;;2.13;1.20;;;-0.30;99.90;;;;;;5010495;28;20075;-75
2021/01/19 01:25:10;;;;;;;3.38;1.58;;;-0.40;99.90;;;;;;5023501;28;20081;-75
2021/01/19 01:27:36;;;;;;;2.53;1.50;;;-0.40;99.90;;;;;;5010733;28;20157;-75
2021/01/19 01:30:03;;;;;;;2.92;1.50;;;-0.60;99.90;;;;;;5011154;28;20587;-75
2021/01/19 01:32:29;;;;;;;2.35;1.67;;;-0.60;99.90;;;;;;5013750;28;20075;-75
2021/01/19 01:34:54;;;;;;;1.75;1.30;;;-0.60;99.90;;;;;;5010321;28;20084;-75
2021/01/19 01:37:20;;;;;;;4.05;1.90;;;-0.60;99.90;;;;;;5012151;28;20094;-77
2021/01/19 01:39:45;;;;;;;3.20;1.30;;;-0.60;99.90;;;;;;5017683;28;20090;-75
2021/01/19 01:42:24;;;;;;;2.67;1.60;;;-0.70;99.90;;;;;;5012684;28;20078;-75
2021/01/19 01:44:50;;;;;;;3.20;1.70;;;-0.70;99.90;;;;;;5017585;28;20074;-76
2021/01/19 01:47:24;;;;;;;3.22;1.92;;;-0.60;99.90;;;;;;5025916;28;20175;-76
2021/01/19 01:49:51;;;;;;;4.07;1.92;;;-0.60;99.90;;;;;;5017132;28;20122;-75
2021/01/19 01:52:19;;;;;;;3.03;1.83;;;-0.70;99.90;;;;;;5016127;28;20090;-75
2021/01/19 01:54:48;;;;;;;3.65;2.00;;;-0.70;99.90;;;;;;5009493;28;20109;-75
2021/01/19 01:57:13;;;;;;;2.47;1.63;;;-0.70;99.90;;;;;;5025147;28;20090;-76
2021/01/19 01:59:39;;;;;;;4.03;2.28;;;-0.70;99.90;;;;;;5024687;28;20109;-75
2021/01/19 02:02:12;;;;;;;3.03;1.90;;;-0.70;99.90;;;;;;5024322;28;20547;-76
2021/01/19 02:04:38;;;;;;;3.13;1.40;;;-0.70;99.90;;;;;;5020904;28;20097;-75
2021/01/19 02:07:36;;;;;;;2.13;1.73;;;-0.80;99.90;;;;;;5032892;28;20078;-75
2021/01/19 02:10:21;;;;;;;6.85;2.10;;;-0.80;99.90;;;;;;5030988;28;20449;-75
2021/01/19 02:13:00;;;;;;;3.88;1.95;;;-0.80;99.90;;;;;;5029602;28;20564;-75
2021/01/19 02:15:41;;;;;;;3.58;1.85;;;-0.80;99.90;;;;;;5016105;28;20074;-75
2021/01/19 02:18:37;;;;;;;3.47;2.00;;;-0.80;99.90;;;;;;5016283;28;20596;-75
2021/01/19 02:21:05;;;;;;;;;;;-0.80;99.90;;;;;;5014598;28;20067;-76
2021/01/19 02:23:40;;;;;;;4.82;1.90;;;-0.90;99.90;;;;;;5018446;28;20020;-76
2021/01/19 02:26:33;;;;;;;2.65;1.77;;;-0.80;99.90;;;;;;5016324;28;20081;-76
2021/01/19 02:29:18;;;;;;;4.50;1.80;;;-0.80;99.90;;;;;;5024902;28;20125;-75
2021/01/19 02:31:50;;;;;;;3.40;1.67;;;-0.80;99.90;;;;;;5015565;28;20747;-75
2021/01/19 02:34:28;;;;;;;4.38;1.92;;;-0.90;99.90;;;;;;5019468;28;20118;-75
2021/01/19 02:36:57;;;;;;;4.07;1.77;;;-0.90;99.90;;;;;;5012943;28;20545;-75
2021/01/19 02:39:31;;;;;;;2.75;1.75;;;-0.90;99.90;;;;;;5026142;28;20094;-75
2021/01/19 02:41:57;;;;;;;3.55;1.98;;;-0.90;99.90;;;;;;5012566;28;20070;-76
2021/01/19 02:44:26;;;;;;;3.35;2.08;;;-0.90;99.90;;;;;;5021822;28;20102;-75
2021/01/19 02:46:54;;;;;;;2.97;2.03;;;-0.90;99.90;;;;;;5026461;28;20128;-75
2021/01/19 02:49:21;;;;;;;2.97;2.05;;;-0.80;99.90;;;;;;5031247;28;20090;-77
2021/01/19 02:51:50;;;;;;;2.45;2.10;;;-0.90;99.90;;;;;;5015809;28;20117;-75
2021/01/19 02:54:16;;;;;;;2.67;2.28;;;-0.80;99.90;;;;;;5017187;28;20090;-76
2021/01/19 02:56:51;;;;;;;3.22;1.88;;;-0.80;99.90;;;;;;5026288;28;20097;-76
2021/01/19 02:59:37;;;;;;;;;;;-0.80;99.90;;;;;;5024722;28;20755;-76
2021/01/19 03:02:13;;;;;;;5.97;2.10;;;-0.90;99.90;;;;;;5018769;28;19961;-75
2021/01/19 03:04:41;;;;;;;2.63;1.83;;;-1.00;99.90;;;;;;5014203;28;20066;-76
2021/01/19 03:07:09;;;;;;;4.07;2.10;;;-1.00;99.90;;;;;;5012248;28;20083;-75
2021/01/19 03:09:39;;;;;;;2.72;2.00;;;-1.00;99.90;;;;;;5023720;28;20255;-75
2021/01/19 03:12:06;;;;;;;3.00;1.80;;;-1.00;99.90;;;;;;5015214;28;20070;-75
2021/01/19 03:14:35;;;;;;;2.55;1.92;;;-0.90;99.90;;;;;;5014221;28;20078;-75
2021/01/19 03:17:11;;;;;;;3.22;1.92;;;-0.90;99.90;;;;;;5014079;28;20170;-77
2021/01/19 03:19:40;;;;;;;3.67;2.05;;;-0.90;99.90;;;;;;5013266;28;20082;-75
2021/01/19 03:22:05;;;;;;;3.38;2.20;;;-0.90;99.90;;;;;;5020091;28;20081;-75
2021/01/19 03:24:31;;;;;;;3.20;1.73;;;-0.90;99.90;;;;;;5030433;28;20070;-75
2021/01/19 03:26:57;;;;;;;4.18;3.00;;;-0.80;99.90;;;;;;5024239;28;20078;-75
2021/01/19 03:29:23;;;;;;;3.65;2.45;;;-0.90;99.90;;;;;;5020532;28;20473;-75
2021/01/19 03:31:48;;;;;;;5.70;2.30;;;-0.90;99.90;;;;;;5013376;28;20164;-75
2021/01/19 03:34:14;;;;;;;4.07;2.25;;;-0.90;99.90;;;;;;5027290;28;20564;-75
2021/01/19 03:36:40;;;;;;;3.58;2.17;;;-0.90;99.90;;;;;;5026259;28;20125;-75
2021/01/19 03:39:05;;;;;;;3.45;1.80;;;-0.90;99.90;;;;;;5013070;28;20101;-76
2021/01/19 03:41:31;;;;;;;3.58;2.30;;;-0.80;99.90;;;;;;5016216;28;20538;-75
2021/01/19 03:43:57;;;;;;;3.45;1.80;;;-1.00;99.90;;;;;;5019753;28;20858;-75
2021/01/19 03:46:24;;;;;;;4.70;2.28;;;-1.10;99.90;;;;;;5027344;28;20093;-75
2021/01/19 03:48:49;;;;;;;4.10;2.20;;;-1.00;99.90;;;;;;5022437;28;20524;-75
2021/01/19 03:51:15;;;;;;;4.80;2.25;;;-1.10;99.90;;;;;;5027978;28;20166;-75
2021/01/19 03:53:41;;;;;;;3.63;2.28;;;-1.20;99.90;;;;;;5029300;28;20074;-75
2021/01/19 03:56:06;;;;;;;2.92;1.73;;;-1.20;99.90;;;;;;5016056;28;20070;-76
2021/01/19 03:58:32;;;;;;;6.32;2.75;;;-1.30;99.90;;;;;;5011906;28;20173;-75
2021/01/19 04:00:57;;;;;;;3.42;2.30;;;-1.30;99.90;;;;;;5025107;28;20161;-75
2021/01/19 04:03:23;;;;;;;3.60;2.42;;;-1.20;99.90;;;;;;5015213;28;20458;-76
2021/01/19 04:05:48;;;;;;;4.35;2.85;;;-1.10;99.90;;;;;;5023839;28;20593;-75
2021/01/19 04:08:14;;;;;;;5.45;2.72;;;-1.10;99.90;;;;;;5026346;28;20070;-75
2021/01/19 04:10:40;;;;;;;3.22;2.17;;;-1.10;99.90;;;;;;5013855;28;20094;-76
2021/01/19 04:13:05;;;;;;;4.93;3.17;;;-1.10;99.90;;;;;;5021573;28;20148;-75
2021/01/19 04:15:31;;;;;;;4.25;2.50;;;-1.00;99.90;;;;;;5024995;28;20070;-76
2021/01/19 04:17:56;;;;;;;3.75;2.05;;;-1.10;99.90;;;;;;5016403;28;20098;-75
2021/01/19 04:20:22;;;;;;;5.47;1.80;;;-1.10;99.90;;;;;;5023785;28;20078;-75
2021/01/19 04:22:47;;;;;;;4.57;2.22;;;-1.00;99.90;;;;;;5022166;28;20081;-75
2021/01/19 04:25:13;;;;;;;3.13;1.80;;;-1.10;99.90;;;;;;5029678;28;20199;-76
2021/01/19 04:27:38;;;;;;;3.70;2.20;;;-1.10;99.90;;;;;;5015472;28;20098;-75
2021/01/19 04:30:07;;;;;;;4.85;2.70;;;-1.10;99.90;;;;;;5023280;28;20486;-75
2021/01/19 04:32:37;;;;;;;2.97;1.85;;;-1.20;99.90;;;;;;5011125;28;20081;-75
2021/01/19 04:35:04;;;;;;;3.83;1.95;;;-1.10;99.90;;;;;;5011794;28;20077;-75
2021/01/19 04:37:30;;;;;;;3.60;2.40;;;-1.20;99.90;;;;;;5027363;28;20144;-75
2021/01/19 04:39:56;;;;;;;3.83;2.42;;;-1.00;99.90;;;;;;5025342;28;20091;-75
2021/01/19 04:42:21;;;;;;;8.73;4.35;;;-1.10;99.90;;;;;;5016515;28;20074;-76
2021/01/19 04:44:49;;;;;;;5.80;3.33;;;-1.40;99.90;;;;;;5011807;28;20074;-75
2021/01/19 04:47:16;;;;;;;6.93;3.15;;;-1.40;99.90;;;;;;5026720;28;20588;-75
2021/01/19 04:49:44;;;;;;;5.87;2.43;;;-1.40;99.90;;;;;;5012218;28;20130;-75
2021/01/19 04:52:14;;;;;;;7.53;2.70;;;-1.30;99.90;;;;;;5013751;28;20090;-75
2021/01/19 04:55:09;;;;;;;3.78;2.72;;;-1.20;99.90;;;;;;5012722;28;20084;-76
2021/01/19 04:57:37;;;;;;;4.50;2.28;;;-1.20;99.90;;;;;;5016906;28;20172;-75
2021/01/19 05:00:14;;;;;;;3.60;2.58;;;-1.30;99.90;;;;;;5024901;28;20633;-75
2021/01/19 05:02:43;;;;;;;3.38;2.17;;;-1.30;99.90;;;;;;5010196;28;20089;-75
2021/01/19 05:05:37;;;;;;;5.00;2.25;;;-1.20;99.90;;;;;;5010946;28;20418;-75
2021/01/19 05:08:15;;;;;;;6.00;2.83;;;-1.30;99.90;;;;;;5045534;22;20096;-73
2021/01/19 05:10:47;;;;;;;4.18;2.17;;;-1.40;99.90;;;;;;4985896;28;20075;-72
2021/01/19 05:13:14;;;;;;;5.85;3.20;;;-1.40;99.90;;;;;;4989005;28;20071;-71
2021/01/19 05:15:44;;;;;;;5.97;2.97;;;-1.40;99.90;;;;;;4976622;28;20559;-72
2021/01/19 05:18:12;;;;;;;6.60;3.55;;;-1.30;99.90;;;;;;4970619;28;20145;-75
2021/01/19 05:21:00;;;;;;;9.05;3.92;;;-1.30;99.90;;;;;;4970906;28;20616;-75
2021/01/19 05:23:25;;;;;;;6.20;3.40;;;-1.40;99.90;;;;;;4972687;28;20486;-72
2021/01/19 05:25:52;;;;;;;8.68;3.47;;;-1.10;99.90;;;;;;4987494;28;20509;-71
2021/01/19 05:28:18;;;;;;;4.57;3.00;;;-1.00;99.90;;;;;;4987375;28;20164;-74
2021/01/19 05:30:51;;;;;;;9.27;2.97;;;-1.00;99.90;;;;;;4977824;28;20067;-72
2021/01/19 05:33:16;;;;;;;4.68;2.35;;;-1.00;99.90;;;;;;4982206;28;20170;-71
2021/01/19 05:35:42;;;;;;;3.70;2.28;;;-1.30;99.90;;;;;;4977212;28;20221;-72
2021/01/19 05:38:08;;;;;;;4.97;2.80;;;-1.20;99.90;;;;;;4972603;28;20098;-73
2021/01/19 05:40:44;;;;;;;3.95;2.22;;;-1.30;99.90;;;;;;4975555;28;20164;-75
2021/01/19 05:43:11;;;;;;;10.30;2.65;;;-1.60;99.90;;;;;;4985537;28;20074;-73
2021/01/19 05:45:36;;;;;;;3.43;2.37;;;-1.60;99.90;;;;;;4983572;28;20067;-76
2021/01/19 05:48:15;;;;;;;2.93;1.80;;;-1.30;99.90;;;;;;4977566;28;20118;-75
2021/01/19 05:50:41;;;;;;;4.07;2.23;;;-1.50;99.90;;;;;;4993417;28;20106;-71
2021/01/19 05:53:16;;;;;;;4.83;2.67;;;-1.40;99.90;;;;;;4988552;28;20080;-71
2021/01/19 05:55:42;;;;;;;;;;;-1.50;99.90;;;;;;4980290;28;20071;-71
2021/01/19 05:58:13;;;;;;;6.73;1.93;;;-1.70;99.90;;;;;;4981216;28;20630;-74
2021/01/19 06:00:41;;;;;;;2.87;2.10;;;-1.90;99.90;;;;;;4991162;28;20161;-73
2021/01/19 06:03:17;;;;;;;5.73;2.03;;;-2.00;99.90;;;;;;4998727;28;20098;-74
2021/01/19 06:05:44;;;;;;;4.87;2.33;;;-2.20;99.90;;;;;;4995946;28;20174;-75
2021/01/19 06:08:14;;;;;;;4.03;2.10;;;-2.30;99.90;;;;;;4975937;28;20109;-71
2021/01/19 06:10:39;;;;;;;4.73;2.80;;;-2.40;99.90;;;;;;4977259;28;20481;-71
2021/01/19 06:13:15;;;;;;;4.00;2.87;;;-2.50;99.90;;;;;;4988619;28;20186;-72
2021/01/19 06:15:41;;;;;;;5.80;2.60;;;-2.30;99.90;;;;;;4984718;28;20742;-72
2021/01/19 06:18:08;;;;;;;5.53;2.50;;;-2.10;99.90;;;;;;4987775;28;20134;-71
2021/01/19 06:20:41;;;;;;;4.70;2.90;;;-2.40;99.90;;;;;;4990099;28;20435;-71
2021/01/19 06:23:07;;;;;;;6.10;2.90;;;-2.60;99.90;;;;;;4980052;28;20093;-71
2021/01/19 06:25:33;;;;;;;5.83;3.03;;;-2.50;99.90;;;;;;4988969;28;20522;-73
2021/01/19 06:28:08;;;;;;;5.57;2.83;;;-2.50;99.90;;;;;;4990419;28;20145;-74
2021/01/19 06:30:34;;;;;;;7.00;3.40;;;-2.60;99.90;;;;;;4976044;28;21015;-74
2021/01/19 06:33:02;;;;;;;6.43;2.30;;;-2.90;99.90;;;;;;4986669;28;20539;-74
2021/01/19 06:35:29;;;;;;;5.67;2.77;;;-2.70;99.90;;;;;;4992984;28;20100;-76
2021/01/19 06:38:04;;;;;;;3.00;2.17;;;-2.60;99.90;;;;;;4985731;28;20462;-74
2021/01/19 06:40:34;;;;;;;8.95;4.07;;;-2.70;99.90;;;;;;4975699;28;20075;-73
2021/01/19 06:43:04;;;;;;;6.10;3.23;;;-2.80;99.90;;;;;;4985282;28;20085;-73
2021/01/19 06:45:31;;;;;;;6.83;3.60;;;-2.80;99.90;;;;;;4986050;28;20067;-76
2021/01/19 06:48:00;;;;;;;4.23;2.50;;;-2.80;99.90;;;;;;4992431;28;20101;-75
2021/01/19 06:50:28;;;;;;;4.83;2.73;;;-2.80;99.90;;;;;;4985588;28;20071;-74
2021/01/19 06:53:03;;;;;;;5.87;2.97;;;-2.90;99.90;;;;;;4974116;28;20089;-75
2021/01/19 06:55:46;;;;;;;3.53;1.98;;;-3.10;99.90;;;;;;4978256;28;20085;-75
2021/01/19 06:58:32;;;;;;;6.47;2.53;;;-3.10;99.90;;;;;;4978859;28;20160;-75
2021/01/19 07:01:06;;;;;;;4.17;2.80;;;-3.00;99.90;;;;;;4989973;28;20133;-73
2021/01/19 07:03:37;;;;;;;2.77;1.80;;;-3.00;99.90;;;;;;4982569;28;20075;-74
2021/01/19 07:06:07;;;;;;;3.43;2.13;;;-2.80;99.90;;;;;;4993169;28;20604;-74
2021/01/19 07:08:51;;;;;;;3.50;2.37;;;-2.90;99.90;;;;;;4982389;28;20130;-71
2021/01/19 07:11:37;;;;;;;4.10;2.40;;;-2.80;99.90;;;;;;4976238;28;20173;-73
2021/01/19 07:14:14;;;;;;;4.27;2.40;;;-2.80;99.90;;;;;;4968255;28;20149;-74
2021/01/19 07:16:53;;;;;;;3.30;2.47;;;-2.80;99.90;;;;;;4979198;28;20155;-74
2021/01/19 07:19:46;;;;;;;3.40;2.30;;;-2.80;99.90;;;;;;4974400;28;20153;-71
2021/01/19 07:22:37;;;;;;;5.63;2.40;;;-2.80;99.90;;;;;;4983733;28;20535;-73
2021/01/19 07:25:06;;;;;;;4.30;2.67;;;-2.90;99.90;;;;;;4978915;28;20173;-75
2021/01/19 07:27:32;;;;;;;4.43;2.63;;;-2.90;99.90;;;;;;4982928;28;20099;-74
2021/01/19 07:29:57;;;;;;;4.00;2.90;;;-3.00;99.90;;;;;;4979611;28;20133;-74
2021/01/19 07:32:31;;;;;;;4.93;2.80;;;-3.10;99.90;;;;;;4995494;28;20079;-74
2021/01/19 07:34:58;;;;;;;4.07;2.63;;;-3.10;99.90;;;;;;4973248;28;20110;-74
2021/01/19 07:37:35;;;;;;;6.23;3.17;;;-3.20;99.90;;;;;;4973281;28;20169;-72
2021/01/19 07:40:02;;;;;;;8.27;2.80;;;-3.20;99.90;;;;;;4988835;28;20125;-74
2021/01/19 07:42:32;;;;;;;4.93;3.13;;;-3.20;99.90;;;;;;4977547;28;20423;-71
2021/01/19 07:45:01;;;;;;;4.67;3.30;;;-3.30;99.90;;;;;;4971678;28;20163;-71
2021/01/19 07:47:41;;;;;;;5.53;2.80;;;-3.20;99.90;;;;;;4993301;28;20079;-73
2021/01/19 07:50:18;;;;;;;5.43;3.30;;;-3.20;99.90;;;;;;4973273;28;20158;-75
2021/01/19 07:52:45;;;;;;;3.67;2.70;;;-3.10;99.90;;;;;;4999891;28;20071;-74
2021/01/19 07:55:12;;;;;;;4.87;2.93;;;-3.00;99.90;;;;;;4978730;28;20083;-73
2021/01/19 07:57:38;;;;;;;5.40;3.53;;;-2.80;99.90;;;;;;4981952;28;20106;-73
2021/01/19 08:00:04;;;;;;;5.10;3.03;;;-2.80;99.90;;;;;;4983169;28;20095;-74
2021/01/19 08:02:30;;;;;;;4.27;2.93;;;-2.70;99.90;;;;;;4986649;28;20075;-73
2021/01/19 08:05:05;;;;;;;5.37;3.03;;;-2.60;99.90;;;;;;4978290;28;20146;-75
2021/01/19 08:07:44;;;;;;;4.97;3.15;;;-2.50;99.90;;;;;;4988609;28;20094;-74
2021/01/19 08:10:24;;;;;;;4.73;2.87;;;-2.50;99.90;;;;;;4984196;28;20173;-73
2021/01/19 08:12:52;;;;;;;4.37;2.87;;;-2.40;99.90;;;;;;4975187;28;20082;-74
2021/01/19 08:15:38;;;;;;;5.73;2.90;;;-2.20;99.90;;;;;;4973447;28;20082;-74
2021/01/19 08:18:14;;;;;;;4.83;3.67;;;-2.20;99.90;;;;;;4971600;28;20115;-73
2021/01/19 08:20:41;;;;;;;9.00;4.33;;;-2.30;99.90;;;;;;4972688;28;20093;-70
2021/01/19 08:23:17;;;;;;;8.17;3.27;;;-2.20;99.90;;;;;;4990122;28;20153;-71
2021/01/19 08:25:43;;;;;;;6.13;4.00;;;-2.20;99.90;;;;;;4984563;28;20078;-74
2021/01/19 08:28:10;;;;;;;9.73;4.80;;;-2.20;99.90;;;;;;4980991;28;20749;-74
2021/01/19 08:30:38;;;;;;;6.40;3.47;;;-2.10;99.90;;;;;;4980544;28;20106;-71
2021/01/19 08:33:04;;;;;;;5.13;3.07;;;-2.00;99.90;;;;;;4987298;28;20105;-71
2021/01/19 08:35:30;;;;;;;5.17;3.03;;;-1.90;99.90;;;;;;4974573;28;20114;-72
2021/01/19 08:38:01;;;;;;;3.57;2.57;;;-1.80;99.90;;;;;;4996995;28;20125;-76
2021/01/19 08:40:31;;;;;;;3.87;3.07;;;-1.70;99.90;;;;;;4978886;28;20090;-76
2021/01/19 08:42:58;;;;;;;5.40;3.13;;;-1.60;99.90;;;;;;4985907;28;20145;-74
2021/01/19 08:45:28;;;;;;;4.40;2.87;;;-1.50;99.90;;;;;;4980313;28;20079;-74
2021/01/19 08:47:57;;;;;;;4.10;2.87;;;-1.40;99.90;;;;;;4973989;28;20095;-75
2021/01/19 08:50:23;;;;;;;5.28;2.50;;;-1.30;99.90;;;;;;4987966;28;20075;-75
2021/01/19 08:52:51;;;;;;;5.07;2.40;;;-1.20;99.90;;;;;;4973880;28;20110;-72
2021/01/19 08:55:19;;;;;;;3.88;2.90;;;-1.10;99.90;;;;;;4975291;28;20083;-72
2021/01/19 08:57:49;;;;;;;6.75;3.72;;;-1.00;99.90;;;;;;4976724;28;20098;-74
2021/01/19 09:00:25;;;;;;;6.93;2.93;;;-1.00;99.90;;;;;;4972738;28;20111;-71
2021/01/19 09:02:53;;;;;;;6.40;3.37;;;-0.90;99.90;;;;;;4970966;28;20186;-71
2021/01/19 09:05:31;;;;;;;7.47;3.63;;;-0.90;99.90;;;;;;4974451;28;20098;-71
2021/01/19 09:07:58;;;;;;;8.07;3.90;;;-0.80;99.90;;;;;;4980956;28;20422;-74
2021/01/19 09:10:28;;;;;;;5.63;3.35;;;-0.80;99.90;;;;;;4994841;28;20110;-73
2021/01/19 09:12:56;;;;;;;4.03;2.87;;;-0.80;99.90;;;;;;4982912;28;20137;-74
2021/01/19 09:15:22;;;;;;;4.05;2.78;;;-0.80;99.90;;;;;;4970444;28;20166;-74
2021/01/19 09:17:58;;;;;;;4.85;2.90;;;-0.80;99.90;;;;;;4974678;28;20095;-74
2021/01/19 09:20:27;;;;;;;5.35;3.03;;;-0.80;99.90;;;;;;4979017;28;20434;-73
2021/01/19 09:22:53;;;;;;;5.90;3.30;;;-0.70;99.90;;;;;;4969648;28;20096;-74
2021/01/19 09:25:23;;;;;;;6.75;3.40;;;-0.60;99.90;;;;;;4987385;28;20112;-71
2021/01/19 09:27:49;;;;;;;4.85;3.15;;;-0.50;99.90;;;;;;4971621;28;20200;-72
2021/01/19 09:30:18;;;;;;;6.25;2.97;;;-0.30;99.90;;;;;;4986191;28;20094;-73
2021/01/19 09:32:46;;;;;;;6.13;3.20;;;-0.40;99.90;;;;;;4983579;28;20136;-72
2021/01/19 09:35:13;;;;;;;7.93;3.80;;;-0.50;99.90;;;;;;4969279;28;20075;-70
2021/01/19 09:37:40;;;;;;;6.35;3.47;;;-0.50;99.90;;;;;;4969261;28;20087;-71
2021/01/19 09:40:07;;;;;;;7.85;4.55;;;-0.40;99.90;;;;;;4985540;28;20091;-72
2021/01/19 09:42:36;;;;;;;4.57;3.42;;;-0.30;99.90;;;;;;4973702;28;20093;-74
2021/01/19 09:45:03;;;;;;;7.88;4.00;;;-0.10;99.90;;;;;;4983410;28;20082;-74
2021/01/19 09:47:30;;;;;;;5.07;3.33;;;-0.10;99.90;;;;;;4987241;28;20111;-73
2021/01/19 09:49:56;;;;;;;6.03;3.95;;;-0.10;99.90;;;;;;4981457;28;20220;-74
2021/01/19 09:52:30;;;;;;;3.72;3.25;;;0.00;99.90;;;;;;4983324;28;20607;-74
2021/01/19 09:55:10;;;;;;;4.43;2.78;;;0.10;99.90;;;;;;4977001;28;20573;-72
2021/01/19 09:57:36;;;;;;;6.72;2.50;;;0.20;99.90;;;;;;4975948;28;20121;-73
2021/01/19 10:00:04;;;;;;;4.03;2.42;;;0.20;99.90;;;;;;4982818;28;20098;-75
2021/01/19 10:02:29;;;;;;;3.90;2.60;;;0.10;99.90;;;;;;4975549;28;20166;-73
2021/01/19 10:05:02;;;;;;;5.07;2.60;;;0.10;99.90;;;;;;4985533;28;20174;-75
2021/01/19 10:07:30;;;;;;;4.63;2.85;;;0.10;99.90;;;;;;4971164;28;20134;-72
2021/01/19 10:10:12;;;;;;;6.13;3.75;;;0.10;99.90;;;;;;4969993;28;20110;-72
2021/01/19 10:12:39;;;;;;;4.22;2.90;;;0.20;99.90;;;;;;4983349;28;20110;-71
2021/01/19 10:15:07;;;;;;;3.95;2.58;;;0.20;99.90;;;;;;4966749;28;20087;-71
2021/01/19 10:17:33;;;;;;;4.50;3.05;;;0.20;99.90;;;;;;4968576;28;20098;-72
2021/01/19 10:20:13;;;;;;;6.03;2.58;;;0.20;99.90;;;;;;4983407;28;20097;-71
2021/01/19 10:22:48;;;;;;;4.05;2.30;;;0.30;99.90;;;;;;4970231;28;20081;-71
2021/01/19 10:25:25;;;;;;;7.25;3.47;;;0.30;99.90;;;;;;4977458;28;20075;-73
2021/01/19 10:27:58;;;;;;;4.57;2.95;;;0.30;99.90;;;;;;4988063;28;20102;-72
2021/01/19 10:30:28;;;;;;;3.55;2.67;;;0.30;99.90;;;;;;4986561;28;20117;-72
2021/01/19 10:32:53;;;;;;;4.00;2.58;;;0.30;99.90;;;;;;4985491;28;20788;-73
2021/01/19 10:35:27;;;;;;;3.28;2.40;;;0.40;99.90;;;;;;4990815;28;20087;-71
2021/01/19 10:38:00;;;;;;;7.22;2.50;;;0.40;99.90;;;;;;4982740;28;20091;-74
2021/01/19 10:40:27;;;;;;;3.00;1.98;;;0.30;99.90;;;;;;4971802;28;20071;-73
2021/01/19 10:42:53;;;;;;;2.97;2.38;;;0.30;99.90;;;;;;4971652;28;20126;-74
2021/01/19 10:45:42;;;;;;;3.38;2.50;;;0.40;99.90;;;;;;4987340;28;20094;-73
2021/01/19 10:48:21;;;;;;;4.70;2.80;;;0.50;99.90;;;;;;4967277;28;20182;-70
2021/01/19 10:50:47;;;;;;;3.35;2.30;;;0.50;99.90;;;;;;4980043;28;20547;-71
2021/01/19 10:53:13;;;;;;;5.20;2.15;;;0.50;99.90;;;;;;4989960;28;20093;-72
2021/01/19 10:55:38;;;;;;;3.22;2.10;;;0.60;99.90;;;;;;4979447;28;20086;-71
2021/01/19 10:58:05;;;;;;;3.67;2.63;;;0.70;99.90;;;;;;4988250;28;20097;-71
2021/01/19 11:00:33;;;;;;;7.80;3.35;;;0.70;99.90;;;;;;4979962;28;20163;-72
2021/01/19 11:02:59;;;;;;;4.72;2.90;;;0.70;99.90;;;;;;4988056;28;20090;-73
2021/01/19 11:05:26;;;;;;;5.18;3.50;;;0.70;99.90;;;;;;4999349;28;20102;-74
2021/01/19 11:07:53;;;;;;;10.18;4.45;;;0.80;99.90;;;;;;4973516;28;20083;-71
2021/01/19 11:10:21;;;;;;;4.68;3.03;;;0.90;99.90;;;;;;4988132;28;20693;-70
2021/01/19 11:12:47;;;;;;;4.90;3.42;;;0.90;99.90;;;;;;4984852;28;20137;-74
2021/01/19 11:15:13;;;;;;;2.75;2.10;;;1.00;99.90;;;;;;4981006;28;20511;-70
2021/01/19 11:17:39;;;;;;;4.10;2.25;;;1.10;99.90;;;;;;4993121;28;20096;-72
2021/01/19 11:20:10;;;;;;;2.50;2.20;;;1.10;99.90;;;;;;4986329;28;20133;-71
2021/01/19 11:22:37;;;;;;;5.53;2.20;;;1.10;99.90;;;;;;4979105;28;20071;-73
2021/01/19 11:25:04;;;;;;;3.55;2.08;;;1.20;99.90;;;;;;4979101;28;20082;-73
2021/01/19 11:27:29;;;;;;;3.38;2.10;;;1.20;99.90;;;;;;4970986;28;20203;-74
2021/01/19 11:29:55;;;;;;;3.17;2.38;;;1.20;99.90;;;;;;4968490;28;20191;-72
2021/01/19 11:32:26;;;;;;;3.85;2.60;;;1.20;99.90;;;;;;4972098;28;20076;-74
2021/01/19 11:34:52;;;;;;;7.20;2.90;;;1.30;99.90;;;;;;4986209;28;20103;-75
2021/01/19 11:37:17;;;;;;;3.70;2.20;;;1.30;99.90;;;;;;4980413;28;20865;-72
2021/01/19 11:39:43;;;;;;;2.40;2.10;;;1.40;99.90;;;;;;4991875;28;20579;-71
2021/01/19 11:42:09;;;;;;;2.50;2.13;;;1.50;99.90;;;;;;4969872;28;20083;-71
2021/01/19 11:44:35;;;;;;;3.78;2.63;;;1.50;99.90;;;;;;4970998;28;20166;-73
2021/01/19 11:47:00;;;;;;;3.47;1.92;;;1.50;99.90;;;;;;4969905;28;20086;-71
2021/01/19 11:49:26;;;;;;;3.08;2.22;;;1.60;99.90;;;;;;4970516;28;20130;-71
2021/01/19 11:51:52;;;;;;;2.38;1.75;;;1.60;99.90;;;;;;4976180;28;20083;-71
2021/01/19 11:54:18;;;;;;;3.15;1.92;;;1.60;99.90;;;;;;4970277;28;20083;-71
2021/01/19 11:56:48;;;;;;;4.15;2.25;;;1.60;99.90;;;;;;4979120;28;20079;-72
2021/01/19 11:59:14;;;;;;;3.22;2.05;;;1.60;99.90;;;;;;4971491;28;20099;-73
2021/01/19 12:01:40;;;;;;;3.47;2.10;;;1.60;99.90;;;;;;4982900;28;20079;-73
2021/01/19 12:04:10;;;;;;;3.83;2.40;;;1.70;99.90;;;;;;4977807;28;20093;-72
2021/01/19 12:06:40;;;;;;;4.00;2.63;;;1.80;99.90;;;;;;4988596;28;20105;-72
2021/01/19 12:09:07;;;;;;;4.05;2.17;;;1.90;99.90;;;;;;4981830;28;20193;-75
2021/01/19 12:11:38;;;;;;;3.97;2.25;;;1.90;99.90;;;;;;4986294;28;20083;-72
2021/01/19 12:14:03;;;;;;;2.78;2.17;;;2.10;99.90;;;;;;4976758;28;20099;-73
2021/01/19 12:16:29;;;;;;;4.43;2.13;;;2.10;99.90;;;;;;4971035;28;20573;-73
2021/01/19 12:18:54;;;;;;;5.18;2.45;;;2.10;99.90;;;;;;4983542;28;20156;-72
2021/01/19 12:21:20;;;;;;;4.47;2.88;;;2.20;99.90;;;;;;4985636;28;20078;-73
2021/01/19 12:23:46;;;;;;;4.00;2.10;;;2.20;99.90;;;;;;4978427;28;20157;-73
2021/01/19 12:26:12;;;;;;;3.70;2.20;;;2.20;99.90;;;;;;4978905;28;20528;-72
2021/01/19 12:28:39;;;;;;;4.05;2.35;;;2.10;99.90;;;;;;4985698;28;20102;-73
2021/01/19 12:31:05;;;;;;;3.60;2.35;;;2.10;99.90;;;;;;4988112;28;20090;-73
2021/01/19 12:33:30;;;;;;;3.50;2.42;;;2.10;99.90;;;;;;4987470;28;20489;-72
2021/01/19 12:35:56;;;;;;;2.28;1.88;;;2.00;99.90;;;;;;4984532;28;20122;-72
2021/01/19 12:38:22;;;;;;;3.80;2.30;;;2.10;99.90;;;;;;4970665;28;20136;-72
2021/01/19 12:40:48;;;;;;;3.75;2.25;;;2.10;99.90;;;;;;4971738;28;20463;-72
2021/01/19 12:43:14;;;;;;;3.00;2.00;;;2.20;99.90;;;;;;4976839;28;20075;-72
2021/01/19 12:45:41;;;;;;;2.38;1.63;;;2.20;99.90;;;;;;4971319;28;20599;-71
2021/01/19 12:48:07;;;;;;;2.47;1.90;;;2.20;99.90;;;;;;4983064;28;20686;-71
2021/01/19 12:50:34;;;;;;;5.05;2.47;;;2.20;99.90;;;;;;4975506;28;20129;-72
2021/01/19 12:53:03;;;;;;;2.75;1.98;;;2.20;99.90;;;;;;4975784;28;20079;-72
2021/01/19 12:55:30;;;;;;;4.03;2.55;;;2.20;99.90;;;;;;4986670;28;20132;-73
2021/01/19 12:57:56;;;;;;;3.47;2.25;;;2.20;99.90;;;;;;4976694;28;20216;-73
2021/01/19 13:00:22;;;;;;;3.65;1.92;;;2.30;99.90;;;;;;4977511;28;20120;-72